La rose des vents
Donnes mto: Semaine 14/02/22 - 20/02/22 (S 7)
Date Horaire Temp. E. Hum. E. P.atmo. Pluie Vent 1mn Direction Ensoleilleme Ev.Tr. Solaire P. de rose Temp au vent Rafales
14/02/2022 00:00 6,3 C 87 % 1020,5 hPa 0,0 l/m 0,0 km/h (0 Bft) N 0,00 h 0,000 mm 0 W/m 4,3 C 6,3 C 0,2 km/h (0 Bft)
14/02/2022 01:00 6,3 C 88 % 1019,7 hPa 0,0 l/m 0,0 km/h (0 Bft) N 0,00 h 0,000 mm 0 W/m 4,5 C 6,3 C 0,0 km/h (0 Bft)
14/02/2022 02:00 6,3 C 89 % 1018,9 hPa 0,8 l/m 0,0 km/h (0 Bft) N 0,00 h 0,000 mm 0 W/m 4,6 C 6,3 C 0,0 km/h (0 Bft)
14/02/2022 03:00 6,2 C 91 % 1018,5 hPa 0,8 l/m 0,0 km/h (0 Bft) N 0,00 h 0,000 mm 0 W/m 4,8 C 6,2 C 0,0 km/h (0 Bft)
14/02/2022 04:00 6,0 C 92 % 1017,9 hPa 0,6 l/m 0,0 km/h (0 Bft) N 0,00 h 0,000 mm 0 W/m 4,8 C 6,0 C 0,0 km/h (0 Bft)
14/02/2022 05:00 6,1 C 93 % 1017,5 hPa 0,6 l/m 0,0 km/h (0 Bft) N 0,00 h 0,000 mm 0 W/m 5,1 C 6,1 C 0,0 km/h (0 Bft)
14/02/2022 06:00 6,3 C 94 % 1017,3 hPa 1,0 l/m 0,0 km/h (0 Bft) N 0,00 h 0,000 mm 0 W/m 5,5 C 6,3 C 0,1 km/h (0 Bft)
14/02/2022 07:00 6,3 C 95 % 1017,3 hPa 0,8 l/m 0,0 km/h (0 Bft) N 0,00 h 0,000 mm 0 W/m 5,6 C 6,3 C 0,1 km/h (0 Bft)
14/02/2022 08:00 6,2 C 95 % 1017,4 hPa 1,0 l/m 0,0 km/h (0 Bft) N 0,00 h 0,000 mm 9 W/m 5,5 C 6,2 C 0,0 km/h (0 Bft)
14/02/2022 09:00 6,3 C 96 % 1017,3 hPa 1,2 l/m 0,0 km/h (0 Bft) NO 0,00 h 0,000 mm 20 W/m 5,7 C 6,3 C 0,1 km/h (0 Bft)
14/02/2022 10:00 6,6 C 96 % 1016,9 hPa 1,0 l/m 0,0 km/h (0 Bft) N 0,00 h 0,000 mm 27 W/m 6,0 C 6,6 C 0,1 km/h (0 Bft)
14/02/2022 11:00 6,9 C 97 % 1016,5 hPa 0,4 l/m 0,0 km/h (0 Bft) N 0,00 h 0,000 mm 43 W/m 6,5 C 6,9 C 0,1 km/h (0 Bft)
14/02/2022 12:00 7,0 C 97 % 1015,7 hPa 0,8 l/m 0,1 km/h (0 Bft) NO 0,00 h 0,025 mm 31 W/m 6,6 C 7,0 C 0,9 km/h (0 Bft)
14/02/2022 13:00 7,0 C 97 % 1014,6 hPa 1,6 l/m 0,1 km/h (0 Bft) NO 0,00 h 0,025 mm 46 W/m 6,6 C 7,0 C 0,3 km/h (0 Bft)
14/02/2022 14:00 7,3 C 97 % 1013,6 hPa 3,2 l/m 0,0 km/h (0 Bft) N 0,00 h 0,025 mm 29 W/m 6,9 C 7,3 C 0,1 km/h (0 Bft)
14/02/2022 15:00 7,4 C 98 % 1012,7 hPa 5,6 l/m 0,1 km/h (0 Bft) NO 0,00 h 0,000 mm 16 W/m 7,0 C 7,4 C 0,7 km/h (0 Bft)
14/02/2022 16:00 7,6 C 98 % 1012,0 hPa 6,2 l/m 0,5 km/h (0 Bft) NE 0,00 h 0,000 mm 9 W/m 7,3 C 7,6 C 1,9 km/h (1 Bft)
14/02/2022 17:00 7,7 C 98 % 1011,6 hPa 9,2 l/m 0,5 km/h (0 Bft) NE 0,00 h 0,000 mm 0 W/m 7,4 C 7,7 C 1,2 km/h (1 Bft)
14/02/2022 18:00 7,8 C 98 % 1011,3 hPa 1,0 l/m 0,2 km/h (0 Bft) NE 0,00 h 0,000 mm 0 W/m 7,5 C 7,8 C 0,9 km/h (0 Bft)
14/02/2022 19:00 7,7 C 98 % 1011,0 hPa 0,2 l/m 0,0 km/h (0 Bft) N 0,00 h 0,000 mm 0 W/m 7,4 C 7,7 C 0,2 km/h (0 Bft)
14/02/2022 20:00 7,3 C 98 % 1010,8 hPa 0,0 l/m 0,0 km/h (0 Bft) N 0,00 h 0,000 mm 0 W/m 7,0 C 7,3 C 0,0 km/h (0 Bft)
14/02/2022 21:00 7,1 C 98 % 1011,0 hPa 0,0 l/m 0,0 km/h (0 Bft) N 0,00 h 0,000 mm 0 W/m 6,8 C 7,1 C 0,0 km/h (0 Bft)
14/02/2022 22:00 7,1 C 98 % 1011,1 hPa 0,2 l/m 0,0 km/h (0 Bft) N 0,00 h 0,000 mm 0 W/m 6,8 C 7,1 C 0,2 km/h (0 Bft)
14/02/2022 23:00 7,3 C 98 % 1011,3 hPa 0,6 l/m 0,0 km/h (0 Bft) N 0,00 h 0,000 mm 0 W/m 7,0 C 7,3 C 0,1 km/h (0 Bft)
15/02/2022 00:00 7,3 C 98 % 1011,2 hPa 1,0 l/m 0,0 km/h (0 Bft) N 0,00 h 0,000 mm 0 W/m 7,0 C 7,3 C 0,0 km/h (0 Bft)
15/02/2022 01:00 7,1 C 98 % 1010,6 hPa 0,0 l/m 0,0 km/h (0 Bft) N 0,00 h 0,000 mm 0 W/m 6,8 C 7,1 C 0,0 km/h (0 Bft)
15/02/2022 02:00 7,1 C 98 % 1010,2 hPa 0,0 l/m 0,0 km/h (0 Bft) N 0,00 h 0,000 mm 0 W/m 6,8 C 7,1 C 0,1 km/h (0 Bft)
15/02/2022 03:00 6,6 C 98 % 1009,5 hPa 0,0 l/m 0,0 km/h (0 Bft) NE 0,00 h 0,000 mm 0 W/m 6,3 C 6,6 C 0,1 km/h (0 Bft)
15/02/2022 04:00 6,0 C 98 % 1009,1 hPa 0,0 l/m 0,0 km/h (0 Bft) NE 0,00 h 0,000 mm 0 W/m 5,7 C 6,0 C 0,1 km/h (0 Bft)
15/02/2022 05:00 5,3 C 98 % 1009,1 hPa 0,0 l/m 0,0 km/h (0 Bft) NE 0,00 h 0,000 mm 0 W/m 5,0 C 5,3 C 0,3 km/h (0 Bft)
15/02/2022 06:00 5,1 C 98 % 1009,4 hPa 0,0 l/m 0,2 km/h (0 Bft) NE 0,00 h 0,000 mm 0 W/m 4,8 C 5,1 C 0,3 km/h (0 Bft)
15/02/2022 07:00 4,6 C 98 % 1009,6 hPa 0,2 l/m 0,0 km/h (0 Bft) N 0,00 h 0,000 mm 7 W/m 4,3 C 4,6 C 0,1 km/h (0 Bft)
15/02/2022 08:00 4,3 C 98 % 1010,5 hPa 0,0 l/m 0,0 km/h (0 Bft) N 0,08 h 0,000 mm 56 W/m 4,1 C 4,3 C 0,0 km/h (0 Bft)
15/02/2022 09:00 6,8 C 99 % 1010,9 hPa 0,0 l/m 0,0 km/h (0 Bft) N 0,58 h 0,025 mm 208 W/m 6,6 C 6,8 C 0,0 km/h (0 Bft)
15/02/2022 10:00 9,8 C 98 % 1011,1 hPa 0,0 l/m 0,0 km/h (0 Bft) N 0,90 h 0,076 mm 426 W/m 9,6 C 9,8 C 0,0 km/h (0 Bft)
15/02/2022 11:00 12,6 C 83 % 1011,4 hPa 0,0 l/m 0,1 km/h (0 Bft) E 0,98 h 0,203 mm 563 W/m 9,8 C 12,6 C 0,5 km/h (0 Bft)
15/02/2022 12:00 13,7 C 74 % 1011,5 hPa 0,0 l/m 1,4 km/h (1 Bft) SE 1,00 h 0,279 mm 610 W/m 9,0 C 13,7 C 4,7 km/h (1 Bft)
15/02/2022 13:00 14,1 C 72 % 1011,3 hPa 0,0 l/m 2,1 km/h (1 Bft) E-SE 1,00 h 0,305 mm 557 W/m 9,2 C 14,1 C 5,6 km/h (1 Bft)
15/02/2022 14:00 14,2 C 72 % 1011,2 hPa 0,0 l/m 1,8 km/h (1 Bft) E-SE 1,00 h 0,279 mm 427 W/m 9,2 C 14,2 C 4,7 km/h (1 Bft)
15/02/2022 15:00 14,4 C 71 % 1011,3 hPa 0,0 l/m 0,5 km/h (0 Bft) E-SE 1,00 h 0,229 mm 314 W/m 9,1 C 14,4 C 2,1 km/h (1 Bft)
15/02/2022 16:00 13,8 C 71 % 1011,8 hPa 0,0 l/m 0,2 km/h (0 Bft) E-SE 1,00 h 0,178 mm 177 W/m 8,7 C 13,8 C 1,1 km/h (1 Bft)
15/02/2022 17:00 11,2 C 78 % 1012,6 hPa 0,0 l/m 0,0 km/h (0 Bft) N 0,08 h 0,102 mm 30 W/m 7,5 C 11,2 C 0,0 km/h (0 Bft)
15/02/2022 18:00 9,1 C 85 % 1013,5 hPa 0,0 l/m 0,1 km/h (0 Bft) E-SE 0,00 h 0,025 mm 5 W/m 6,8 C 9,1 C 0,3 km/h (0 Bft)
15/02/2022 19:00 8,3 C 88 % 1014,1 hPa 0,0 l/m 0,0 km/h (0 Bft) N 0,00 h 0,000 mm 0 W/m 6,4 C 8,3 C 0,0 km/h (0 Bft)
15/02/2022 20:00 7,7 C 90 % 1014,5 hPa 0,0 l/m 0,0 km/h (0 Bft) N 0,00 h 0,000 mm 0 W/m 6,1 C 7,7 C 0,0 km/h (0 Bft)
15/02/2022 21:00 7,2 C 91 % 1014,9 hPa 0,0 l/m 0,0 km/h (0 Bft) N 0,00 h 0,000 mm 0 W/m 5,8 C 7,2 C 0,2 km/h (0 Bft)
15/02/2022 22:00 6,9 C 90 % 1015,2 hPa 0,0 l/m 0,0 km/h (0 Bft) N 0,00 h 0,000 mm 0 W/m 5,3 C 6,9 C 0,1 km/h (0 Bft)
15/02/2022 23:00 6,3 C 83 % 1015,3 hPa 0,0 l/m 0,0 km/h (0 Bft) N 0,00 h 0,000 mm 0 W/m 3,5 C 6,3 C 0,0 km/h (0 Bft)
16/02/2022 00:00 6,1 C 78 % 1015,6 hPa 0,0 l/m 0,0 km/h (0 Bft) N 0,00 h 0,000 mm 0 W/m 2,6 C 6,1 C 0,3 km/h (0 Bft)
16/02/2022 01:00 5,9 C 75 % 1015,5 hPa 0,0 l/m 0,0 km/h (0 Bft) E-SE 0,00 h 0,025 mm 0 W/m 1,8 C 5,9 C 0,2 km/h (0 Bft)
16/02/2022 02:00 5,4 C 75 % 1015,6 hPa 0,0 l/m 0,0 km/h (0 Bft) N 0,00 h 0,025 mm 0 W/m 1,4 C 5,4 C 0,1 km/h (0 Bft)
16/02/2022 03:00 4,9 C 72 % 1015,6 hPa 0,0 l/m 0,1 km/h (0 Bft) E-SE 0,00 h 0,025 mm 0 W/m 0,3 C 4,9 C 0,3 km/h (0 Bft)
16/02/2022 04:00 5,1 C 68 % 1015,4 hPa 0,0 l/m 0,0 km/h (0 Bft) N 0,00 h 0,025 mm 0 W/m -0,3 C 5,1 C 0,2 km/h (0 Bft)
16/02/2022 05:00 5,3 C 68 % 1015,7 hPa 0,0 l/m 0,4 km/h (0 Bft) E-SE 0,00 h 0,025 mm 0 W/m -0,1 C 5,3 C 1,2 km/h (1 Bft)
16/02/2022 06:00 5,6 C 63 % 1015,9 hPa 0,0 l/m 0,4 km/h (0 Bft) E-SE 0,00 h 0,025 mm 0 W/m -0,9 C 5,6 C 1,3 km/h (1 Bft)
16/02/2022 07:00 5,9 C 61 % 1016,2 hPa 0,0 l/m 0,0 km/h (0 Bft) E-SE 0,32 h 0,025 mm 36 W/m -1,2 C 5,9 C 0,1 km/h (0 Bft)
16/02/2022 08:00 7,4 C 58 % 1016,6 hPa 0,0 l/m 0,0 km/h (0 Bft) N 0,75 h 0,025 mm 148 W/m -0,2 C 7,4 C 0,0 km/h (0 Bft)
16/02/2022 09:00 10,3 C 53 % 1016,7 hPa 0,0 l/m 0,7 km/h (0 Bft) E-SE 0,42 h 0,076 mm 175 W/m 1,1 C 10,3 C 1,5 km/h (1 Bft)
16/02/2022 10:00 12,3 C 53 % 1016,4 hPa 0,0 l/m 0,1 km/h (0 Bft) E-SE 0,60 h 0,102 mm 328 W/m 3,0 C 12,3 C 0,7 km/h (0 Bft)
16/02/2022 11:00 12,5 C 59 % 1016,4 hPa 0,0 l/m 1,2 km/h (1 Bft) E-SE 0,08 h 0,178 mm 203 W/m 4,7 C 12,5 C 3,0 km/h (1 Bft)
16/02/2022 12:00 14,8 C 53 % 1015,9 hPa 0,0 l/m 0,3 km/h (0 Bft) S-SO 0,92 h 0,127 mm 517 W/m 5,4 C 14,8 C 1,6 km/h (1 Bft)
16/02/2022 13:00 16,4 C 51 % 1015,0 hPa 0,0 l/m 2,6 km/h (1 Bft) E 1,00 h 0,279 mm 480 W/m 6,2 C 16,4 C 6,5 km/h (2 Bft)
16/02/2022 14:00 16,3 C 49 % 1014,4 hPa 0,0 l/m 1,1 km/h (1 Bft) E 0,98 h 0,279 mm 419 W/m 5,6 C 16,3 C 3,5 km/h (1 Bft)
16/02/2022 15:00 15,9 C 45 % 1013,7 hPa 0,0 l/m 0,3 km/h (0 Bft) E 0,88 h 0,229 mm 291 W/m 4,1 C 15,9 C 1,9 km/h (1 Bft)
16/02/2022 16:00 14,2 C 54 % 1013,5 hPa 0,0 l/m 0,7 km/h (0 Bft) E 0,93 h 0,152 mm 182 W/m 5,0 C 14,2 C 2,5 km/h (1 Bft)
16/02/2022 17:00 11,9 C 66 % 1013,9 hPa 0,0 l/m 0,3 km/h (0 Bft) E 0,02 h 0,102 mm 21 W/m 5,7 C 11,9 C 1,2 km/h (1 Bft)
16/02/2022 18:00 9,6 C 77 % 1014,7 hPa 0,0 l/m 0,0 km/h (0 Bft) N 0,00 h 0,025 mm 0 W/m 5,8 C 9,6 C 0,1 km/h (0 Bft)
16/02/2022 19:00 9,0 C 82 % 1014,9 hPa 0,0 l/m 0,0 km/h (0 Bft) E 0,00 h 0,000 mm 0 W/m 6,0 C 9,0 C 0,0 km/h (0 Bft)
16/02/2022 20:00 8,4 C 83 % 1015,2 hPa 0,0 l/m 0,3 km/h (0 Bft) E 0,00 h 0,025 mm 0 W/m 5,7 C 8,4 C 0,9 km/h (0 Bft)
16/02/2022 21:00 8,0 C 85 % 1015,1 hPa 0,0 l/m 0,1 km/h (0 Bft) E 0,00 h 0,000 mm 0 W/m 5,7 C 8,0 C 0,3 km/h (0 Bft)
16/02/2022 22:00 7,8 C 85 % 1015,1 hPa 0,0 l/m 0,5 km/h (0 Bft) E 0,00 h 0,000 mm 0 W/m 5,4 C 7,7 C 1,2 km/h (1 Bft)
16/02/2022 23:00 7,9 C 86 % 1014,9 hPa 0,0 l/m 0,1 km/h (0 Bft) E 0,00 h 0,000 mm 0 W/m 5,8 C 7,9 C 0,4 km/h (0 Bft)
17/02/2022 00:00 8,2 C 86 % 1014,4 hPa 0,0 l/m 0,1 km/h (0 Bft) E 0,00 h 0,000 mm 0 W/m 6,0 C 8,2 C 0,4 km/h (0 Bft)
17/02/2022 01:00 7,9 C 87 % 1013,7 hPa 0,0 l/m 0,3 km/h (0 Bft) E 0,00 h 0,000 mm 0 W/m 5,9 C 7,9 C 1,2 km/h (1 Bft)
17/02/2022 02:00 7,5 C 87 % 1013,2 hPa 0,0 l/m 0,1 km/h (0 Bft) E 0,00 h 0,000 mm 0 W/m 5,5 C 7,5 C 0,9 km/h (0 Bft)
17/02/2022 03:00 7,2 C 88 % 1012,6 hPa 0,0 l/m 0,2 km/h (0 Bft) E 0,00 h 0,000 mm 0 W/m 5,4 C 7,2 C 0,8 km/h (0 Bft)
17/02/2022 04:00 7,0 C 89 % 1012,3 hPa 0,0 l/m 0,1 km/h (0 Bft) E 0,00 h 0,000 mm 0 W/m 5,2 C 7,0 C 0,6 km/h (0 Bft)
17/02/2022 05:00 6,8 C 89 % 1012,2 hPa 0,0 l/m 0,0 km/h (0 Bft) N 0,00 h 0,000 mm 0 W/m 5,1 C 6,8 C 0,0 km/h (0 Bft)
17/02/2022 06:00 6,8 C 91 % 1012,2 hPa 0,0 l/m 0,1 km/h (0 Bft) E 0,00 h 0,000 mm 0 W/m 5,4 C 6,8 C 0,2 km/h (0 Bft)
17/02/2022 07:00 6,6 C 91 % 1012,3 hPa 0,0 l/m 0,0 km/h (0 Bft) N 0,25 h 0,000 mm 25 W/m 5,3 C 6,6 C 0,0 km/h (0 Bft)
17/02/2022 08:00 7,4 C 93 % 1013,2 hPa 0,0 l/m 0,0 km/h (0 Bft) N 0,33 h 0,000 mm 81 W/m 6,3 C 7,4 C 0,0 km/h (0 Bft)
17/02/2022 09:00 9,6 C 92 % 1013,6 hPa 0,0 l/m 0,0 km/h (0 Bft) N 0,53 h 0,025 mm 202 W/m 8,3 C 9,6 C 0,0 km/h (0 Bft)
17/02/2022 10:00 13,3 C 78 % 1014,0 hPa 0,0 l/m 0,3 km/h (0 Bft) E 0,88 h 0,102 mm 351 W/m 9,6 C 13,3 C 1,9 km/h (1 Bft)
17/02/2022 11:00 15,2 C 68 % 1014,4 hPa 0,0 l/m 0,4 km/h (0 Bft) E 0,97 h 0,178 mm 436 W/m 9,3 C 15,2 C 2,0 km/h (1 Bft)
17/02/2022 12:00 15,3 C 63 % 1014,3 hPa 0,0 l/m 0,5 km/h (0 Bft) E 0,72 h 0,229 mm 349 W/m 8,2 C 15,3 C 1,9 km/h (1 Bft)
17/02/2022 13:00 15,0 C 68 % 1014,2 hPa 0,0 l/m 0,6 km/h (0 Bft) E 0,43 h 0,178 mm 303 W/m 9,2 C 15,0 C 2,2 km/h (1 Bft)
17/02/2022 14:00 16,8 C 67 % 1013,7 hPa 0,0 l/m 0,5 km/h (0 Bft) E 1,00 h 0,152 mm 486 W/m 10,6 C 16,8 C 2,0 km/h (1 Bft)
17/02/2022 15:00 16,5 C 66 % 1013,3 hPa 0,0 l/m 1,5 km/h (1 Bft) SE 0,93 h 0,254 mm 332 W/m 10,1 C 16,5 C 4,5 km/h (1 Bft)
17/02/2022 16:00 15,9 C 71 % 1013,3 hPa 0,0 l/m 0,1 km/h (0 Bft) E-SE 0,88 h 0,178 mm 213 W/m 10,6 C 15,9 C 1,1 km/h (1 Bft)
17/02/2022 17:00 13,7 C 78 % 1013,5 hPa 0,0 l/m 0,1 km/h (0 Bft) E-SE 0,07 h 0,127 mm 28 W/m 9,9 C 13,7 C 0,7 km/h (0 Bft)
17/02/2022 18:00 11,4 C 86 % 1013,8 hPa 0,0 l/m 0,0 km/h (0 Bft) N 0,00 h 0,025 mm 0 W/m 9,2 C 11,4 C 0,0 km/h (0 Bft)
17/02/2022 19:00 10,2 C 89 % 1014,1 hPa 0,0 l/m 0,0 km/h (0 Bft) N 0,00 h 0,000 mm 0 W/m 8,5 C 10,2 C 0,0 km/h (0 Bft)
17/02/2022 20:00 9,4 C 91 % 1014,1 hPa 0,0 l/m 0,0 km/h (0 Bft) N 0,00 h 0,000 mm 0 W/m 8,1 C 9,4 C 0,0 km/h (0 Bft)
17/02/2022 21:00 9,1 C 93 % 1014,4 hPa 0,0 l/m 0,0 km/h (0 Bft) N 0,00 h 0,000 mm 0 W/m 8,0 C 9,1 C 0,0 km/h (0 Bft)
17/02/2022 22:00 8,8 C 94 % 1014,6 hPa 0,0 l/m 0,0 km/h (0 Bft) N 0,00 h 0,000 mm 0 W/m 7,8 C 8,8 C 0,0 km/h (0 Bft)
17/02/2022 23:00 8,6 C 95 % 1014,8 hPa 0,0 l/m 0,0 km/h (0 Bft) N 0,00 h 0,000 mm 0 W/m 7,9 C 8,6 C 0,0 km/h (0 Bft)
18/02/2022 00:00 8,5 C 95 % 1015,0 hPa 0,0 l/m 0,0 km/h (0 Bft) N 0,00 h 0,000 mm 0 W/m 7,7 C 8,5 C 0,0 km/h (0 Bft)
18/02/2022 01:00 8,4 C 96 % 1015,1 hPa 0,0 l/m 0,0 km/h (0 Bft) N 0,00 h 0,000 mm 0 W/m 7,7 C 8,4 C 0,1 km/h (0 Bft)
18/02/2022 02:00 8,0 C 96 % 1015,2 hPa 0,0 l/m 0,2 km/h (0 Bft) E-SE 0,00 h 0,000 mm 0 W/m 7,4 C 8,0 C 1,0 km/h (0 Bft)
18/02/2022 03:00 7,9 C 96 % 1014,9 hPa 0,0 l/m 0,0 km/h (0 Bft) E-SE 0,00 h 0,000 mm 0 W/m 7,3 C 7,9 C 0,4 km/h (0 Bft)
18/02/2022 04:00 7,9 C 96 % 1014,6 hPa 0,0 l/m 0,1 km/h (0 Bft) E-SE 0,00 h 0,000 mm 0 W/m 7,3 C 7,9 C 0,5 km/h (0 Bft)
18/02/2022 05:00 7,9 C 95 % 1015,0 hPa 0,2 l/m 0,4 km/h (0 Bft) E-SE 0,00 h 0,000 mm 0 W/m 7,2 C 7,9 C 1,7 km/h (1 Bft)
18/02/2022 06:00 8,0 C 95 % 1015,1 hPa 0,0 l/m 0,0 km/h (0 Bft) N 0,00 h 0,000 mm 0 W/m 7,2 C 8,0 C 0,0 km/h (0 Bft)
18/02/2022 07:00 7,9 C 95 % 1015,6 hPa 0,0 l/m 0,0 km/h (0 Bft) E-SE 0,40 h 0,000 mm 35 W/m 7,1 C 7,9 C 0,2 km/h (0 Bft)
18/02/2022 08:00 9,1 C 96 % 1016,3 hPa 0,0 l/m 0,0 km/h (0 Bft) N 0,10 h 0,000 mm 45 W/m 8,5 C 9,1 C 0,0 km/h (0 Bft)
18/02/2022 09:00 10,4 C 95 % 1016,7 hPa 0,0 l/m 0,0 km/h (0 Bft) N 0,00 h 0,025 mm 115 W/m 9,7 C 10,4 C 0,0 km/h (0 Bft)
18/02/2022 10:00 12,5 C 89 % 1017,0 hPa 0,0 l/m 0,0 km/h (0 Bft) N 0,27 h 0,051 mm 239 W/m 10,7 C 12,5 C 0,0 km/h (0 Bft)
18/02/2022 11:00 15,6 C 76 % 1016,9 hPa 0,0 l/m 0,1 km/h (0 Bft) E-SE 0,62 h 0,127 mm 432 W/m 11,4 C 15,6 C 0,5 km/h (0 Bft)
18/02/2022 12:00 15,6 C 76 % 1016,3 hPa 0,0 l/m 1,7 km/h (1 Bft) E-SE 0,60 h 0,229 mm 408 W/m 11,3 C 15,6 C 4,4 km/h (1 Bft)
18/02/2022 13:00 15,0 C 79 % 1015,4 hPa 0,0 l/m 2,4 km/h (1 Bft) E-SE 0,15 h 0,229 mm 211 W/m 11,3 C 15,0 C 5,7 km/h (1 Bft)
18/02/2022 14:00 15,8 C 78 % 1015,0 hPa 0,0 l/m 2,0 km/h (1 Bft) E-SE 0,70 h 0,127 mm 392 W/m 12,0 C 15,8 C 5,9 km/h (2 Bft)
18/02/2022 15:00 16,5 C 75 % 1014,6 hPa 0,0 l/m 0,7 km/h (0 Bft) S-SE 0,63 h 0,229 mm 324 W/m 12,0 C 16,5 C 3,4 km/h (1 Bft)
18/02/2022 16:00 15,3 C 78 % 1014,4 hPa 0,0 l/m 0,7 km/h (0 Bft) S-SE 0,35 h 0,178 mm 139 W/m 11,5 C 15,3 C 2,4 km/h (1 Bft)
18/02/2022 17:00 13,1 C 86 % 1014,3 hPa 0,0 l/m 0,7 km/h (0 Bft) S-SE 0,00 h 0,076 mm 30 W/m 10,9 C 13,1 C 1,7 km/h (1 Bft)
18/02/2022 18:00 12,3 C 90 % 1014,4 hPa 0,0 l/m 0,0 km/h (0 Bft) N 0,00 h 0,025 mm 0 W/m 10,8 C 12,3 C 0,0 km/h (0 Bft)
18/02/2022 19:00 12,0 C 92 % 1014,5 hPa 0,0 l/m 0,0 km/h (0 Bft) N 0,00 h 0,000 mm 0 W/m 10,6 C 12,0 C 0,0 km/h (0 Bft)
18/02/2022 20:00 11,8 C 92 % 1014,5 hPa 0,0 l/m 0,0 km/h (0 Bft) N 0,00 h 0,000 mm 0 W/m 10,5 C 11,8 C 0,0 km/h (0 Bft)
18/02/2022 21:00 11,7 C 93 % 1014,4 hPa 0,0 l/m 0,0 km/h (0 Bft) N 0,00 h 0,000 mm 0 W/m 10,6 C 11,7 C 0,0 km/h (0 Bft)
18/02/2022 22:00 11,6 C 93 % 1014,4 hPa 0,0 l/m 0,0 km/h (0 Bft) N 0,00 h 0,000 mm 0 W/m 10,5 C 11,6 C 0,0 km/h (0 Bft)
18/02/2022 23:00 11,5 C 94 % 1014,3 hPa 0,0 l/m 0,0 km/h (0 Bft) N 0,00 h 0,000 mm 0 W/m 10,5 C 11,5 C 0,0 km/h (0 Bft)
19/02/2022 00:00 11,3 C 94 % 1013,8 hPa 0,0 l/m 0,0 km/h (0 Bft) N 0,00 h 0,000 mm 0 W/m 10,4 C 11,3 C 0,0 km/h (0 Bft)
19/02/2022 01:00 11,1 C 94 % 1013,5 hPa 0,0 l/m 0,0 km/h (0 Bft) N 0,00 h 0,000 mm 0 W/m 10,2 C 11,1 C 0,0 km/h (0 Bft)
19/02/2022 02:00 10,8 C 93 % 1012,9 hPa 0,0 l/m 0,0 km/h (0 Bft) N 0,00 h 0,000 mm 0 W/m 9,7 C 10,8 C 0,0 km/h (0 Bft)
19/02/2022 03:00 9,9 C 92 % 1012,5 hPa 0,0 l/m 0,0 km/h (0 Bft) N 0,00 h 0,000 mm 0 W/m 8,7 C 9,9 C 0,4 km/h (0 Bft)
19/02/2022 04:00 9,1 C 93 % 1012,3 hPa 0,0 l/m 0,1 km/h (0 Bft) S-SE 0,00 h 0,000 mm 0 W/m 8,0 C 9,1 C 0,7 km/h (0 Bft)
19/02/2022 05:00 8,7 C 94 % 1012,4 hPa 0,0 l/m 0,0 km/h (0 Bft) N 0,00 h 0,000 mm 0 W/m 7,8 C 8,7 C 0,1 km/h (0 Bft)
19/02/2022 06:00 8,4 C 94 % 1012,3 hPa 0,0 l/m 0,0 km/h (0 Bft) N 0,00 h 0,000 mm 0 W/m 7,5 C 8,4 C 0,0 km/h (0 Bft)
19/02/2022 07:00 8,1 C 95 % 1012,5 hPa 0,0 l/m 0,0 km/h (0 Bft) N 0,00 h 0,000 mm 19 W/m 7,3 C 8,1 C 0,0 km/h (0 Bft)
19/02/2022 08:00 8,7 C 96 % 1013,1 hPa 0,0 l/m 0,0 km/h (0 Bft) N 0,23 h 0,000 mm 89 W/m 8,1 C 8,7 C 0,0 km/h (0 Bft)
19/02/2022 09:00 11,0 C 97 % 1013,6 hPa 0,0 l/m 0,0 km/h (0 Bft) N 0,82 h 0,051 mm 220 W/m 10,6 C 11,0 C 0,0 km/h (0 Bft)
19/02/2022 10:00 13,7 C 89 % 1014,0 hPa 0,0 l/m 0,1 km/h (0 Bft) S-SE 0,42 h 0,102 mm 252 W/m 11,9 C 13,7 C 0,9 km/h (0 Bft)
19/02/2022 11:00 15,2 C 81 % 1014,2 hPa 0,0 l/m 0,2 km/h (0 Bft) S-SE 0,58 h 0,127 mm 312 W/m 12,0 C 15,2 C 1,0 km/h (0 Bft)
19/02/2022 12:00 15,7 C 77 % 1013,9 hPa 0,0 l/m 0,3 km/h (0 Bft) S-SE 0,30 h 0,152 mm 275 W/m 11,6 C 15,7 C 1,9 km/h (1 Bft)
19/02/2022 13:00 15,0 C 78 % 1013,3 hPa 0,0 l/m 0,6 km/h (0 Bft) S-SE 0,00 h 0,152 mm 185 W/m 11,2 C 15,0 C 2,4 km/h (1 Bft)
19/02/2022 14:00 14,1 C 81 % 1013,3 hPa 0,0 l/m 0,6 km/h (0 Bft) S-SE 0,00 h 0,102 mm 108 W/m 10,9 C 14,1 C 1,8 km/h (1 Bft)
19/02/2022 15:00 13,7 C 85 % 1013,2 hPa 0,0 l/m 0,3 km/h (0 Bft) S-SE 0,00 h 0,051 mm 104 W/m 11,3 C 13,7 C 1,3 km/h (1 Bft)
19/02/2022 16:00 13,2 C 88 % 1013,6 hPa 0,0 l/m 0,0 km/h (0 Bft) N 0,00 h 0,051 mm 38 W/m 11,2 C 13,2 C 0,1 km/h (0 Bft)
19/02/2022 17:00 12,7 C 90 % 1014,1 hPa 0,0 l/m 0,0 km/h (0 Bft) N 0,00 h 0,025 mm 12 W/m 11,1 C 12,7 C 0,0 km/h (0 Bft)
19/02/2022 18:00 12,3 C 91 % 1014,5 hPa 0,0 l/m 0,0 km/h (0 Bft) N 0,00 h 0,000 mm 0 W/m 10,9 C 12,3 C 0,0 km/h (0 Bft)
19/02/2022 19:00 11,9 C 91 % 1015,1 hPa 0,0 l/m 0,0 km/h (0 Bft) N 0,00 h 0,000 mm 0 W/m 10,5 C 11,9 C 0,0 km/h (0 Bft)
19/02/2022 20:00 11,4 C 92 % 1015,7 hPa 0,0 l/m 0,0 km/h (0 Bft) N 0,00 h 0,000 mm 0 W/m 10,2 C 11,4 C 0,0 km/h (0 Bft)
19/02/2022 21:00 11,4 C 94 % 1015,9 hPa 0,0 l/m 0,0 km/h (0 Bft) N 0,00 h 0,000 mm 0 W/m 10,4 C 11,4 C 0,1 km/h (0 Bft)
19/02/2022 22:00 11,2 C 93 % 1016,3 hPa 0,0 l/m 0,0 km/h (0 Bft) N 0,00 h 0,000 mm 0 W/m 10,1 C 11,2 C 0,0 km/h (0 Bft)
19/02/2022 23:00 10,3 C 92 % 1016,1 hPa 0,0 l/m 0,0 km/h (0 Bft) N 0,00 h 0,000 mm 0 W/m 9,1 C 10,3 C 0,1 km/h (0 Bft)
20/02/2022 00:00 9,1 C 89 % 1016,4 hPa 0,0 l/m 0,0 km/h (0 Bft) N 0,00 h 0,000 mm 0 W/m 7,4 C 9,1 C 0,0 km/h (0 Bft)
20/02/2022 01:00 8,3 C 91 % 1016,5 hPa 0,0 l/m 0,1 km/h (0 Bft) S-SE 0,00 h 0,000 mm 0 W/m 6,9 C 8,3 C 0,9 km/h (0 Bft)
20/02/2022 02:00 8,2 C 91 % 1016,9 hPa 0,0 l/m 0,0 km/h (0 Bft) S-SE 0,00 h 0,000 mm 0 W/m 6,7 C 8,2 C 0,5 km/h (0 Bft)
20/02/2022 03:00 8,3 C 91 % 1016,9 hPa 0,0 l/m 0,0 km/h (0 Bft) N 0,00 h 0,000 mm 0 W/m 6,9 C 8,3 C 0,0 km/h (0 Bft)
20/02/2022 04:00 8,1 C 91 % 1017,1 hPa 0,0 l/m 0,0 km/h (0 Bft) S-SE 0,00 h 0,000 mm 0 W/m 6,8 C 8,1 C 0,2 km/h (0 Bft)
20/02/2022 05:00 8,2 C 90 % 1017,3 hPa 0,0 l/m 0,4 km/h (0 Bft) S-SE 0,00 h 0,000 mm 0 W/m 6,7 C 8,2 C 1,3 km/h (1 Bft)
20/02/2022 06:00 8,4 C 85 % 1017,8 hPa 0,0 l/m 0,3 km/h (0 Bft) O-NO 0,00 h 0,000 mm 0 W/m 6,1 C 8,4 C 1,1 km/h (1 Bft)
20/02/2022 07:00 8,0 C 85 % 1018,5 hPa 0,0 l/m 0,0 km/h (0 Bft) N 0,27 h 0,000 mm 25 W/m 5,6 C 8,0 C 0,1 km/h (0 Bft)
20/02/2022 08:00 9,3 C 86 % 1018,9 hPa 0,0 l/m 0,0 km/h (0 Bft) N 1,00 h 0,000 mm 134 W/m 7,1 C 9,3 C 0,0 km/h (0 Bft)
20/02/2022 09:00 13,1 C 77 % 1019,2 hPa 0,0 l/m 0,0 km/h (0 Bft) N 1,00 h 0,051 mm 283 W/m 9,3 C 13,1 C 0,0 km/h (0 Bft)
20/02/2022 10:00 15,6 C 66 % 1019,5 hPa 0,0 l/m 0,3 km/h (0 Bft) SO 1,00 h 0,152 mm 414 W/m 9,3 C 15,6 C 1,1 km/h (1 Bft)
20/02/2022 11:00 16,2 C 61 % 1019,7 hPa 0,0 l/m 4,2 km/h (1 Bft) SO 1,00 h 0,229 mm 503 W/m 8,6 C 16,2 C 8,3 km/h (2 Bft)
20/02/2022 12:00 17,2 C 60 % 1019,3 hPa 0,0 l/m 3,2 km/h (1 Bft) SO 1,00 h 0,279 mm 541 W/m 9,4 C 17,2 C 7,7 km/h (2 Bft)
20/02/2022 13:00 17,5 C 57 % 1018,8 hPa 0,0 l/m 6,5 km/h (2 Bft) S-SO 1,00 h 0,305 mm 528 W/m 8,9 C 17,5 C 13,4 km/h (3 Bft)
20/02/2022 14:00 18,2 C 51 % 1018,2 hPa 0,0 l/m 4,8 km/h (1 Bft) S-SO 1,00 h 0,330 mm 464 W/m 7,7 C 18,2 C 10,4 km/h (2 Bft)
20/02/2022 15:00 18,1 C 52 % 1017,8 hPa 0,0 l/m 5,1 km/h (1 Bft) S 0,98 h 0,305 mm 338 W/m 8,0 C 18,1 C 9,9 km/h (2 Bft)
20/02/2022 16:00 17,1 C 56 % 1017,6 hPa 0,0 l/m 3,6 km/h (1 Bft) S-SO 1,00 h 0,229 mm 201 W/m 8,1 C 17,1 C 7,0 km/h (2 Bft)
20/02/2022 17:00 14,7 C 63 % 1017,5 hPa 0,0 l/m 2,8 km/h (1 Bft) S-SO 0,20 h 0,127 mm 41 W/m 7,7 C 14,7 C 5,9 km/h (2 Bft)
20/02/2022 18:00 12,1 C 73 % 1017,7 hPa 0,0 l/m 0,8 km/h (0 Bft) S-SO 0,00 h 0,051 mm 6 W/m 7,4 C 12,1 C 1,3 km/h (1 Bft)
20/02/2022 19:00 10,7 C 78 % 1018,2 hPa 0,0 l/m 0,0 km/h (0 Bft) N 0,00 h 0,000 mm 0 W/m 7,0 C 10,7 C 0,0 km/h (0 Bft)
20/02/2022 20:00 9,6 C 81 % 1018,1 hPa 0,0 l/m 0,0 km/h (0 Bft) N 0,00 h 0,025 mm 0 W/m 6,5 C 9,6 C 0,1 km/h (0 Bft)
20/02/2022 21:00 8,9 C 85 % 1017,5 hPa 0,0 l/m 0,0 km/h (0 Bft) N 0,00 h 0,025 mm 0 W/m 6,5 C 8,9 C 0,0 km/h (0 Bft)
20/02/2022 22:00 8,6 C 83 % 1017,0 hPa 0,0 l/m 0,0 km/h (0 Bft) N 0,00 h 0,000 mm 0 W/m 5,9 C 8,6 C 0,1 km/h (0 Bft)
20/02/2022 23:00 8,7 C 76 % 1016,1 hPa 0,0 l/m 0,2 km/h (0 Bft) S-SO 0,00 h 0,000 mm 0 W/m 4,7 C 8,7 C 1,1 km/h (1 Bft)
Min-Date _ 15/02/22 16/02/22 15/02/22 - 14/02/22 - - - - 16/02/22 15/02/22 14/02/22
_ Min-Heure 08:07 15:31 05:00 - 00:00 - - - - 07:47 08:07 00:00
Minimum _ 4,2 C 41 % 1008,9 hPa - 0,0 km/h (0 Bft) - - - - -1,4 C 4,2 C 0,0 km/h (0 Bft)
Max-Date _ 20/02/22 15/02/22 14/02/22 14/02/22 20/02/22 - 15/02/22 20/02/22 18/02/22 18/02/22 20/02/22 20/02/22
_ Max-Heure 15:08 08:55 00:00 17:03 13:10 - 08:24 14:00 12:19 15:05 15:08 13:09
Maximum _ 18,7 C 99 % 1020,8 hPa 9,2 l/m 14,5 km/h
S-SO (3 Bft)
- 0,02 h 0,330 mm 738 W/m 12,9 C 18,7 C 20,9 km/h
S-SO (4 Bft)
Moyenne _ 10,1 C 84 % 1014,6 hPa #38,2 l/m 0,4 km/h (0 Bft) E-SE #37:09 h #9,215 mm 217 W/m 7,3 C 10,1 C 1,1 km/h (1 Bft)
Roquefort les pins